createdAt,value
2017-06-08T00:00:53.370Z,13.38
2017-06-08T00:01:53.371Z,13.25
2017-06-08T00:02:53.358Z,13.32
2017-06-08T00:03:53.354Z,13.28
2017-06-08T00:04:53.348Z,13.25
2017-06-08T00:05:53.343Z,13.14
2017-06-08T00:06:53.337Z,13.2
2017-06-08T00:07:53.330Z,13.14
2017-06-08T00:08:53.324Z,13.07
2017-06-08T00:09:53.319Z,13.01
2017-06-08T00:10:53.012Z,12.97
2017-06-08T00:11:53.308Z,12.83
2017-06-08T00:12:53.300Z,12.87
2017-06-08T00:13:53.332Z,12.75
2017-06-08T00:14:52.990Z,12.74
2017-06-08T00:15:53.284Z,12.64
2017-06-08T00:16:53.283Z,12.71
2017-06-08T00:17:53.273Z,12.65
2017-06-08T00:18:53.277Z,12.56
2017-06-08T00:19:53.264Z,12.46
2017-06-08T00:20:53.257Z,12.5
2017-06-08T00:21:53.251Z,12.42
2017-06-08T00:22:53.246Z,12.39
2017-06-08T00:23:53.236Z,12.31
2017-06-08T00:24:53.231Z,12.28
2017-06-08T00:25:53.231Z,12.19
2017-06-08T00:26:53.228Z,12.27
2017-06-08T00:27:53.247Z,12.27
2017-06-08T00:28:53.209Z,12.17
2017-06-08T00:29:53.201Z,12.12
2017-06-08T00:30:53.194Z,12.2
2017-06-08T00:31:53.189Z,12.16
2017-06-08T00:32:53.183Z,12.04
2017-06-08T00:33:53.176Z,12.07
2017-06-08T00:34:53.173Z,12.04
2017-06-08T00:35:53.167Z,12.1
2017-06-08T00:36:53.156Z,12.02
2017-06-08T00:37:53.150Z,11.98
2017-06-08T00:38:53.146Z,11.91
2017-06-08T00:39:53.146Z,11.96
2017-06-08T00:40:53.136Z,11.99
2017-06-08T00:41:53.123Z,11.85
2017-06-08T00:42:53.118Z,11.94
2017-06-08T00:43:53.117Z,11.88
2017-06-08T00:44:53.105Z,11.82
2017-06-08T00:45:53.099Z,11.86
2017-06-08T00:46:53.094Z,11.85
2017-06-08T00:47:53.123Z,11.85
2017-06-08T00:48:53.079Z,11.88
2017-06-08T00:49:53.112Z,11.78
2017-06-08T00:50:53.069Z,11.79
2017-06-08T00:52:53.059Z,11.86
2017-06-08T00:53:53.051Z,11.78
2017-06-08T00:54:53.046Z,11.82
2017-06-08T00:55:53.035Z,11.83
2017-06-08T00:56:53.027Z,11.76
2017-06-08T00:57:52.723Z,11.8
2017-06-08T00:58:52.713Z,11.82
2017-06-08T00:59:53.017Z,11.79
2017-06-08T01:00:53.004Z,11.79
2017-06-08T01:01:52.995Z,11.73
2017-06-08T01:02:52.988Z,11.78
2017-06-08T01:03:52.981Z,11.69
2017-06-08T01:04:52.977Z,11.76
2017-06-08T01:05:52.973Z,11.72
2017-06-08T01:06:52.964Z,11.75
2017-06-08T01:07:52.955Z,11.69
2017-06-08T01:08:52.950Z,11.67
2017-06-08T01:09:52.942Z,11.67
2017-06-08T01:10:52.632Z,11.73
2017-06-08T01:11:52.929Z,11.72
2017-06-08T01:12:52.948Z,11.75
2017-06-08T01:13:52.925Z,11.73
2017-06-08T01:14:52.912Z,11.67
2017-06-08T01:15:52.901Z,11.65
2017-06-08T01:16:52.895Z,11.72
2017-06-08T01:17:52.888Z,11.67
2017-06-08T01:18:52.885Z,11.65
2017-06-08T01:19:52.877Z,11.62
2017-06-08T01:20:52.868Z,11.64
2017-06-08T01:21:52.863Z,11.62
2017-06-08T01:22:52.855Z,11.6
2017-06-08T01:23:52.552Z,11.65
2017-06-08T01:24:52.845Z,11.61
2017-06-08T01:25:52.533Z,11.54
2017-06-08T01:26:52.524Z,11.54
2017-06-08T01:27:52.519Z,11.57
2017-06-08T01:28:52.814Z,11.62
2017-06-08T01:29:52.806Z,11.54
2017-06-08T01:30:52.806Z,11.55
2017-06-08T01:31:52.190Z,11.58
2017-06-08T01:32:52.789Z,11.6
2017-06-08T01:33:52.780Z,11.52
2017-06-08T01:34:52.781Z,11.52
2017-06-08T01:35:52.769Z,11.46
2017-06-08T01:36:52.761Z,11.52
2017-06-08T01:37:52.754Z,11.54
2017-06-08T01:38:52.747Z,11.52
2017-06-08T01:39:52.740Z,11.54
2017-06-08T01:40:52.735Z,11.51
2017-06-08T01:41:52.727Z,11.57
2017-06-08T01:42:52.423Z,11.55
2017-06-08T01:43:52.408Z,11.52
2017-06-08T01:44:52.706Z,11.62
2017-06-08T01:45:52.707Z,11.52
2017-06-08T01:46:52.694Z,11.67
2017-06-08T01:47:52.691Z,11.69
2017-06-08T01:48:52.679Z,11.65
2017-06-08T01:49:52.674Z,11.72
2017-06-08T01:50:52.666Z,11.72
2017-06-08T01:51:52.360Z,11.75
2017-06-08T01:52:52.653Z,11.82
2017-06-08T01:53:52.645Z,11.76
2017-06-08T01:54:52.638Z,11.86
2017-06-08T01:55:52.635Z,11.82
2017-06-08T01:56:52.625Z,11.76
2017-06-08T01:57:52.619Z,11.79
2017-06-08T01:58:52.612Z,11.79
2017-06-08T01:59:52.604Z,11.8
2017-06-08T02:00:52.601Z,11.85
2017-06-08T02:01:52.591Z,11.88
2017-06-08T02:02:52.584Z,11.88
2017-06-08T02:03:52.580Z,11.9
2017-06-08T02:04:52.573Z,11.83
2017-06-08T02:05:52.564Z,11.94
2017-06-08T02:06:52.254Z,11.98
2017-06-08T02:07:52.555Z,11.94
2017-06-08T02:08:52.548Z,12.05
2017-06-08T02:09:52.236Z,11.96
2017-06-08T02:10:52.532Z,12.13
2017-06-08T02:11:52.525Z,12.07
2017-06-08T02:12:52.572Z,11.99
2017-06-08T02:13:52.515Z,12.07
2017-06-08T02:14:52.505Z,11.98
2017-06-08T02:15:52.503Z,11.99
2017-06-08T02:16:52.492Z,11.95
2017-06-08T02:17:52.485Z,11.95
2017-06-08T02:18:52.481Z,11.95
2017-06-08T02:19:52.472Z,12.01
2017-06-08T02:20:52.465Z,11.99
2017-06-08T02:21:52.461Z,12.01
2017-06-08T02:22:52.452Z,11.9
2017-06-08T02:23:52.448Z,11.96
2017-06-08T02:24:52.442Z,11.9
2017-06-08T02:25:52.434Z,11.91
2017-06-08T02:26:52.428Z,11.95
2017-06-08T02:27:52.420Z,11.85
2017-06-08T02:28:52.411Z,11.83
2017-06-08T02:29:52.409Z,11.88
2017-06-08T02:30:52.403Z,11.82
2017-06-08T02:31:52.394Z,11.75
2017-06-08T02:32:52.388Z,11.85
2017-06-08T02:33:52.381Z,11.85
2017-06-08T02:34:52.069Z,11.85
2017-06-08T02:35:52.370Z,11.86
2017-06-08T02:36:52.058Z,11.94
2017-06-08T02:37:52.358Z,11.83
2017-06-08T02:38:52.046Z,11.95
2017-06-08T02:39:52.075Z,11.88
2017-06-08T02:40:52.342Z,11.88
2017-06-08T02:41:52.327Z,11.88
2017-06-08T02:42:52.320Z,11.82
2017-06-08T02:43:52.010Z,11.9
2017-06-08T02:44:52.307Z,11.83
2017-06-08T02:45:52.301Z,11.82
2017-06-08T02:46:52.293Z,11.85
2017-06-08T02:47:52.288Z,11.85
2017-06-08T02:48:52.279Z,11.85
2017-06-08T02:49:52.276Z,11.82
2017-06-08T02:50:51.964Z,11.86
2017-06-08T02:51:52.609Z,11.96
2017-06-08T02:52:52.254Z,12.04
2017-06-08T02:53:52.246Z,11.98
2017-06-08T02:54:52.244Z,12.1
2017-06-08T02:55:52.236Z,11.98
2017-06-08T02:56:51.924Z,12.12
2017-06-08T02:57:52.227Z,11.96
2017-06-08T02:58:52.213Z,12.2
2017-06-08T02:59:52.207Z,12.17
2017-06-08T03:00:52.202Z,12.2
2017-06-08T03:01:52.234Z,12.16
2017-06-08T03:02:52.190Z,12.24
2017-06-08T03:03:52.179Z,12.37
2017-06-08T03:04:52.173Z,12.39
2017-06-08T03:05:52.169Z,12.46
2017-06-08T03:06:52.166Z,12.41
2017-06-08T03:07:51.853Z,12.49
2017-06-08T03:08:52.148Z,12.52
2017-06-08T03:09:52.143Z,12.54
2017-06-08T03:10:52.138Z,12.59
2017-06-08T03:11:52.130Z,12.65
2017-06-08T03:12:52.123Z,12.67
2017-06-08T03:13:52.117Z,12.7
2017-06-08T03:14:52.113Z,12.72
2017-06-08T03:15:52.105Z,12.74
2017-06-08T03:16:52.098Z,12.77
2017-06-08T03:17:52.092Z,12.87
2017-06-08T03:18:52.087Z,12.96
2017-06-08T03:19:51.777Z,12.96
2017-06-08T03:20:52.073Z,13.01
2017-06-08T03:21:52.068Z,13.04
2017-06-08T03:22:51.758Z,13.1
2017-06-08T03:23:52.052Z,13.15
2017-06-08T03:24:52.047Z,13.2
2017-06-08T03:25:52.040Z,13.2
2017-06-08T03:26:52.037Z,13.17
2017-06-08T03:27:52.072Z,13.25
2017-06-08T03:28:52.023Z,13.29
2017-06-08T03:29:52.021Z,13.29
2017-06-08T03:30:51.709Z,13.36
2017-06-08T03:31:52.007Z,13.38
2017-06-08T03:32:52.000Z,13.42
2017-06-08T03:33:52.031Z,13.48
2017-06-08T03:34:51.686Z,13.51
2017-06-08T03:35:51.982Z,13.55
2017-06-08T03:36:51.976Z,13.63
2017-06-08T03:37:51.970Z,13.64
2017-06-08T03:38:51.665Z,13.7
2017-06-08T03:39:51.959Z,13.73
2017-06-08T03:40:51.953Z,13.73
2017-06-08T03:41:51.648Z,13.85
2017-06-08T03:42:51.653Z,13.88
2017-06-08T03:43:51.637Z,13.88
2017-06-08T03:44:51.929Z,13.85
2017-06-08T03:45:51.924Z,14.04
2017-06-08T03:46:51.925Z,14.15
2017-06-08T03:47:51.913Z,14
2017-06-08T03:48:51.908Z,14.12
2017-06-08T03:49:51.903Z,14.2
2017-06-08T03:50:51.898Z,14.27
2017-06-08T03:51:51.891Z,14.28
2017-06-08T03:52:51.892Z,14.24
2017-06-08T03:53:51.583Z,14.35
2017-06-08T03:54:51.883Z,14.36
2017-06-08T03:55:51.871Z,14.4
2017-06-08T03:56:51.867Z,14.6
2017-06-08T03:57:51.864Z,14.57
2017-06-08T03:58:51.553Z,14.72
2017-06-08T03:59:51.852Z,14.81
2017-06-08T04:00:51.847Z,14.95
2017-06-08T04:01:51.842Z,15.1
2017-06-08T04:02:51.835Z,15.25
2017-06-08T04:03:51.836Z,15.31
2017-06-08T04:04:51.828Z,15.39
2017-06-08T04:05:51.821Z,15.53
2017-06-08T04:06:51.821Z,15.47
2017-06-08T04:07:51.825Z,15.6
2017-06-08T04:08:51.822Z,15.65
2017-06-08T04:09:51.815Z,15.74
2017-06-08T04:10:51.804Z,15.75
2017-06-08T04:11:51.797Z,15.8
2017-06-08T04:12:51.794Z,15.84
2017-06-08T04:13:51.788Z,15.84
2017-06-08T04:14:51.787Z,15.96
2017-06-08T04:15:51.780Z,16
2017-06-08T04:16:51.778Z,16.14
2017-06-08T04:17:51.507Z,16.24
2017-06-08T04:18:51.770Z,16.33
2017-06-08T04:19:51.462Z,16.48
2017-06-08T04:20:51.762Z,16.52
2017-06-08T04:21:51.759Z,16.64
2017-06-08T04:22:51.755Z,16.7
2017-06-08T04:23:51.447Z,16.89
2017-06-08T04:24:51.446Z,16.97
2017-06-08T04:25:51.744Z,17.21
2017-06-08T04:26:51.740Z,17.23
2017-06-08T04:27:51.737Z,17.56
2017-06-08T04:28:51.735Z,17.84
2017-06-08T04:29:51.731Z,18.07
2017-06-08T04:30:51.732Z,18.44
2017-06-08T04:31:51.727Z,18.67
2017-06-08T04:32:51.726Z,18.84
2017-06-08T04:33:51.421Z,19.02
2017-06-08T04:34:51.721Z,19.06
2017-06-08T04:35:51.420Z,19.16
2017-06-08T04:36:51.716Z,19.18
2017-06-08T04:37:51.716Z,19.25
2017-06-08T04:38:51.713Z,19.29
2017-06-08T04:39:51.714Z,19.41
2017-06-08T04:40:51.715Z,19.41
2017-06-08T04:41:51.712Z,19.47
2017-06-08T04:42:51.720Z,19.69
2017-06-08T04:43:51.709Z,19.78
2017-06-08T04:44:51.710Z,19.81
2017-06-08T04:45:51.406Z,19.92
2017-06-08T04:46:51.402Z,19.91
2017-06-08T04:47:51.401Z,19.91
2017-06-08T04:48:51.708Z,19.88
2017-06-08T04:49:51.704Z,19.95
2017-06-08T04:50:51.098Z,19.87
2017-06-08T04:51:51.706Z,20.06
2017-06-08T04:52:51.398Z,20.08
2017-06-08T04:53:51.400Z,20.28
2017-06-08T04:54:51.700Z,20.39
2017-06-08T04:55:51.700Z,20.58
2017-06-08T04:56:51.396Z,20.97
2017-06-08T04:57:51.700Z,21.21
2017-06-08T04:58:51.700Z,21.5
2017-06-08T04:59:51.701Z,21.88
2017-06-08T05:00:51.399Z,22.3
2017-06-08T05:01:51.704Z,22.75
2017-06-08T05:02:51.403Z,23.02
2017-06-08T05:03:51.717Z,23.36
2017-06-08T05:04:51.407Z,23.65
2017-06-08T05:05:51.714Z,23.73
2017-06-08T05:06:51.714Z,23.84
2017-06-08T05:07:51.419Z,24.06
2017-06-08T05:08:51.720Z,24.24
2017-06-08T05:09:51.422Z,24.22
2017-06-08T05:10:51.732Z,24.22
2017-06-08T05:11:51.738Z,24.12
2017-06-08T05:12:51.741Z,24.25
2017-06-08T05:13:51.740Z,24.21
2017-06-08T05:14:51.747Z,24.18
2017-06-08T05:15:51.751Z,24.15
2017-06-08T05:16:51.754Z,24.21
2017-06-08T05:17:51.760Z,24.28
2017-06-08T05:18:51.764Z,24.34
2017-06-08T05:19:51.466Z,24.42
2017-06-08T05:20:51.468Z,24.39
2017-06-08T05:21:51.777Z,24.3
2017-06-08T05:22:51.485Z,24.24
2017-06-08T05:23:51.480Z,24.24
2017-06-08T05:24:51.496Z,24.28
2017-06-08T05:25:51.490Z,24.31
2017-06-08T05:26:51.495Z,24.16
2017-06-08T05:27:51.496Z,24.24
2017-06-08T05:28:51.805Z,24.21
2017-06-08T05:29:51.811Z,24.1
2017-06-08T05:30:51.813Z,24.05
2017-06-08T05:31:51.816Z,24.03
2017-06-08T05:32:51.819Z,23.8
2017-06-08T05:33:51.828Z,23.79
2017-06-08T05:34:51.530Z,23.73
2017-06-08T05:35:51.833Z,23.72
2017-06-08T05:36:51.831Z,23.54
2017-06-08T05:37:51.837Z,23.48
2017-06-08T05:38:51.840Z,23.46
2017-06-08T05:39:51.879Z,23.38
2017-06-08T05:40:51.850Z,23.25
2017-06-08T05:41:51.851Z,23.27
2017-06-08T05:42:51.549Z,23.19
2017-06-08T05:43:51.858Z,23.12
2017-06-08T05:44:51.856Z,22.9
2017-06-08T05:45:51.862Z,22.86
2017-06-08T05:46:51.565Z,22.83
2017-06-08T05:47:51.867Z,22.75
2017-06-08T05:48:51.562Z,22.7
2017-06-08T05:49:51.867Z,22.61
2017-06-08T05:50:51.911Z,22.65
2017-06-08T05:51:51.874Z,22.57
2017-06-08T05:52:51.569Z,22.52
2017-06-08T05:53:51.572Z,22.52
2017-06-08T05:54:51.881Z,22.51
2017-06-08T05:55:51.881Z,22.47
2017-06-08T05:56:51.881Z,22.43
2017-06-08T05:57:51.882Z,22.42
2017-06-08T05:58:51.886Z,22.51
2017-06-08T05:59:51.597Z,22.46
2017-06-08T06:00:51.890Z,22.36
2017-06-08T06:01:51.588Z,22.36
2017-06-08T06:02:51.889Z,22.35
2017-06-08T06:03:51.890Z,22.3
2017-06-08T06:04:51.891Z,22.31
2017-06-08T06:05:51.896Z,22.37
2017-06-08T06:06:51.900Z,22.31
2017-06-08T06:07:51.905Z,22.35
2017-06-08T06:08:51.900Z,22.37
2017-06-08T06:09:51.900Z,22.43
2017-06-08T06:10:51.900Z,22.49
2017-06-08T06:11:51.901Z,22.49
2017-06-08T06:12:51.905Z,22.67
2017-06-08T06:13:51.905Z,22.65
2017-06-08T06:14:51.906Z,22.75
2017-06-08T06:15:51.604Z,22.86
2017-06-08T06:16:51.608Z,22.8
2017-06-08T06:17:51.914Z,22.77
2017-06-08T06:18:51.913Z,22.67
2017-06-08T06:19:51.913Z,22.75
2017-06-08T06:20:51.616Z,22.76
2017-06-08T06:21:51.614Z,22.86
2017-06-08T06:22:51.925Z,22.92
2017-06-08T06:23:51.924Z,22.92
2017-06-08T06:24:51.921Z,22.9
2017-06-08T06:25:51.927Z,22.92
2017-06-08T06:26:51.932Z,22.9
2017-06-08T06:27:51.934Z,22.8
2017-06-08T06:28:51.935Z,22.86
2017-06-08T06:29:51.630Z,22.83
2017-06-08T06:30:51.635Z,22.88
2017-06-08T06:31:51.635Z,23.04
2017-06-08T06:32:51.634Z,23.09
2017-06-08T06:33:51.940Z,23.16
2017-06-08T06:34:51.948Z,23.2
2017-06-08T06:35:51.945Z,23.38
2017-06-08T06:36:51.955Z,23.48
2017-06-08T06:37:51.950Z,23.47
2017-06-08T06:38:51.952Z,23.65
2017-06-08T06:39:51.956Z,23.79
2017-06-08T06:40:51.961Z,23.91
2017-06-08T06:41:51.963Z,24.05
2017-06-08T06:42:51.969Z,24.25
2017-06-08T06:43:51.972Z,24.34
2017-06-08T06:44:51.973Z,24.42
2017-06-08T06:45:51.981Z,24.64
2017-06-08T06:46:51.984Z,24.8
2017-06-08T06:47:51.988Z,24.95
2017-06-08T06:48:51.991Z,25.18
2017-06-08T06:49:52.001Z,25.47
2017-06-08T06:50:52.006Z,25.67
2017-06-08T06:51:52.014Z,26.01
2017-06-08T06:52:52.017Z,26.37
2017-06-08T06:53:52.022Z,26.72
2017-06-08T06:54:52.029Z,27.09
2017-06-08T06:55:52.039Z,27.59
2017-06-08T06:56:52.049Z,27.96
2017-06-08T06:57:52.054Z,28.37
2017-06-08T06:58:52.064Z,28.93
2017-06-08T06:59:52.074Z,29.42
2017-06-08T07:00:52.086Z,29.85
2017-06-08T07:01:52.096Z,30.24
2017-06-08T07:02:52.107Z,30.76
2017-06-08T07:03:52.116Z,31.2
2017-06-08T07:04:52.128Z,31.73
2017-06-08T07:05:52.140Z,32.26
2017-06-08T07:06:51.850Z,32.63
2017-06-08T07:07:52.163Z,33.03
2017-06-08T07:08:52.176Z,33.15
2017-06-08T07:09:52.196Z,33.35
2017-06-08T07:10:52.204Z,33.57
2017-06-08T07:11:51.916Z,33.81
2017-06-08T07:12:52.242Z,34
2017-06-08T07:13:52.242Z,34.42
2017-06-08T07:14:52.259Z,34.61
2017-06-08T07:15:52.313Z,34.85
2017-06-08T07:16:52.285Z,35.07
2017-06-08T07:17:52.010Z,35.16
2017-06-08T07:18:52.315Z,35.38
2017-06-08T07:19:52.329Z,35.55
2017-06-08T07:20:52.046Z,35.43
2017-06-08T07:21:52.365Z,35.5
2017-06-08T07:22:52.378Z,35.38
2017-06-08T07:23:52.395Z,35.28
2017-06-08T07:24:52.408Z,35.21
2017-06-08T07:25:52.424Z,35.07
2017-06-08T07:26:52.136Z,35.09
2017-06-08T07:27:52.451Z,35.06
2017-06-08T07:28:52.467Z,34.96
2017-06-08T07:29:52.481Z,34.91
2017-06-08T07:30:52.498Z,34.77
2017-06-08T07:31:52.208Z,34.75
2017-06-08T07:32:52.565Z,34.54
2017-06-08T07:33:52.539Z,34.37
2017-06-08T07:34:52.553Z,34.21
2017-06-08T07:35:52.570Z,34.1
2017-06-08T07:36:52.582Z,33.98
2017-06-08T07:37:52.292Z,33.91
2017-06-08T07:38:52.616Z,33.84
2017-06-08T07:39:52.326Z,33.98
2017-06-08T07:40:52.337Z,34.09
2017-06-08T07:41:52.655Z,34.03
2017-06-08T07:42:52.664Z,33.9
2017-06-08T07:43:52.678Z,33.78
2017-06-08T07:44:52.690Z,33.66
2017-06-08T07:45:52.407Z,33.61
2017-06-08T07:46:52.414Z,33.56
2017-06-08T07:47:52.732Z,33.54
2017-06-08T07:48:52.741Z,33.57
2017-06-08T07:49:52.756Z,33.41
2017-06-08T07:50:52.774Z,33.28
2017-06-08T07:51:52.786Z,33.32
2017-06-08T07:52:52.793Z,33.34
2017-06-08T07:53:52.810Z,33.34
2017-06-08T07:54:52.518Z,33.5
2017-06-08T07:55:52.835Z,33.63
2017-06-08T07:56:52.844Z,33.68
2017-06-08T07:57:52.864Z,33.59
2017-06-08T07:58:52.872Z,33.45
2017-06-08T07:59:52.927Z,33.16
2017-06-08T08:00:52.593Z,32.87
2017-06-08T08:01:52.910Z,32.75
2017-06-08T08:02:52.925Z,32.78
2017-06-08T08:03:52.636Z,32.77
2017-06-08T08:04:52.954Z,32.63
2017-06-08T08:05:52.964Z,32.51
2017-06-08T08:06:52.672Z,32.56
2017-06-08T08:07:52.989Z,32.56
2017-06-08T08:08:52.997Z,32.32
2017-06-08T08:09:53.011Z,32.08
2017-06-08T08:10:53.020Z,31.76
2017-06-08T08:11:53.034Z,31.56
2017-06-08T08:12:53.047Z,31.34
2017-06-08T08:13:53.092Z,31.26
2017-06-08T08:14:53.068Z,31.32
2017-06-08T08:15:52.476Z,31.48
2017-06-08T08:16:53.103Z,31.73
2017-06-08T08:17:52.798Z,32
2017-06-08T08:18:53.115Z,32.33
2017-06-08T08:19:53.131Z,32.52
2017-06-08T08:20:53.139Z,32.88
2017-06-08T08:21:53.151Z,33.07
2017-06-08T08:22:52.859Z,33.29
2017-06-08T08:23:53.176Z,33.38
2017-06-08T08:24:53.186Z,33.42
2017-06-08T08:25:53.202Z,33.49
2017-06-08T08:26:53.211Z,33.5
2017-06-08T08:27:53.225Z,33.51
2017-06-08T08:28:52.935Z,33.51
2017-06-08T08:29:52.948Z,33.47
2017-06-08T08:30:52.964Z,33.45
2017-06-08T08:31:52.975Z,33.34
2017-06-08T08:32:53.294Z,33.21
2017-06-08T08:33:53.303Z,33
2017-06-08T08:34:53.013Z,32.88
2017-06-08T08:35:53.328Z,32.85
2017-06-08T08:36:53.039Z,32.79
2017-06-08T08:37:53.354Z,32.84
2017-06-08T08:38:53.367Z,32.84
2017-06-08T08:39:53.377Z,32.7
2017-06-08T08:40:53.390Z,32.62
2017-06-08T08:41:53.401Z,32.5
2017-06-08T08:42:53.110Z,32.29
2017-06-08T08:43:53.426Z,32.03
2017-06-08T08:44:53.441Z,31.65
2017-06-08T08:45:53.447Z,31.46
2017-06-08T08:46:53.465Z,31.26
2017-06-08T08:47:53.472Z,31.13
2017-06-08T08:48:53.479Z,31.06
2017-06-08T08:49:53.488Z,31.13
2017-06-08T08:50:53.503Z,31.12
2017-06-08T08:51:53.208Z,31.02
2017-06-08T08:52:53.219Z,31.01
2017-06-08T08:53:53.531Z,30.92
2017-06-08T08:54:53.547Z,30.83
2017-06-08T08:55:53.556Z,30.61
2017-06-08T08:56:53.565Z,30.6
2017-06-08T08:57:53.571Z,30.35
2017-06-08T08:58:53.586Z,30.16
2017-06-08T08:59:53.598Z,30.19
2017-06-08T09:00:53.613Z,29.9
2017-06-08T09:01:53.310Z,29.7
2017-06-08T09:02:53.665Z,29.63
2017-06-08T09:03:53.335Z,29.45
2017-06-08T09:04:53.853Z,29.33
2017-06-08T09:05:53.667Z,29
2017-06-08T09:06:53.670Z,28.83
2017-06-08T09:07:53.671Z,28.61
2017-06-08T09:08:53.882Z,28.44
2017-06-08T09:09:53.690Z,28.37
2017-06-08T09:10:53.696Z,28.37
2017-06-08T09:11:53.706Z,28.41
2017-06-08T09:12:53.708Z,28.31
2017-06-08T09:13:53.715Z,28.25
2017-06-08T09:14:53.724Z,27.97
2017-06-08T09:15:53.734Z,27.82
2017-06-08T09:16:53.739Z,27.62
2017-06-08T09:17:53.446Z,27.62
2017-06-08T09:18:53.755Z,27.59
2017-06-08T09:19:53.761Z,27.59
2017-06-08T09:20:53.770Z,27.51
2017-06-08T09:21:53.774Z,27.47
2017-06-08T09:22:53.780Z,27.46
2017-06-08T09:23:53.787Z,27.51
2017-06-08T09:24:53.794Z,27.43
2017-06-08T09:25:53.801Z,27.36
2017-06-08T09:26:53.807Z,27.17
2017-06-08T09:27:53.821Z,27.14
2017-06-08T09:28:53.822Z,27.1
2017-06-08T09:29:53.826Z,27.18
2017-06-08T09:30:53.833Z,27.14
2017-06-08T09:31:53.836Z,27.1
2017-06-08T09:32:53.847Z,27.19
2017-06-08T09:33:53.853Z,27.31
2017-06-08T09:34:53.855Z,27.39
2017-06-08T09:35:53.862Z,27.5
2017-06-08T09:36:53.868Z,27.69
2017-06-08T09:37:53.880Z,27.72
2017-06-08T09:38:53.882Z,27.78
2017-06-08T09:39:53.584Z,27.9
2017-06-08T09:40:53.897Z,27.87
2017-06-08T09:41:53.898Z,28
2017-06-08T09:42:53.607Z,28.14
2017-06-08T09:43:53.911Z,28.21
2017-06-08T09:44:53.919Z,28.31
2017-06-08T09:45:53.621Z,28.48
2017-06-08T09:46:53.932Z,28.51
2017-06-08T09:47:53.935Z,28.58
2017-06-08T09:48:53.942Z,28.62
2017-06-08T09:49:53.952Z,28.76
2017-06-08T09:50:53.966Z,28.76
2017-06-08T09:51:53.963Z,28.7
2017-06-08T09:52:53.970Z,28.7
2017-06-08T09:53:53.675Z,28.7
2017-06-08T09:54:53.979Z,28.77
2017-06-08T09:55:53.997Z,28.93
2017-06-08T09:56:53.995Z,29.02
2017-06-08T09:57:54.007Z,28.92
2017-06-08T09:58:54.013Z,29.06
2017-06-08T09:59:54.015Z,29.19
2017-06-08T10:00:53.419Z,29.31
2017-06-08T10:01:54.031Z,29.41
2017-06-08T10:02:54.041Z,29.48
2017-06-08T10:03:54.043Z,29.48
2017-06-08T10:04:54.050Z,29.53
2017-06-08T10:05:54.058Z,29.58
2017-06-08T10:06:54.064Z,29.64
2017-06-08T10:07:53.766Z,29.7
2017-06-08T10:08:54.077Z,29.6
2017-06-08T10:09:53.781Z,29.53
2017-06-08T10:10:54.092Z,29.51
2017-06-08T10:11:54.099Z,29.41
2017-06-08T10:12:54.105Z,29.06
2017-06-08T10:13:54.113Z,28.92
2017-06-08T10:14:54.118Z,28.81
2017-06-08T10:15:54.127Z,28.7
2017-06-08T10:16:54.132Z,28.55
2017-06-08T10:17:54.149Z,28.55
2017-06-08T10:18:54.147Z,28.49
2017-06-08T10:19:53.852Z,28.52
2017-06-08T10:20:54.162Z,28.54
2017-06-08T10:21:54.168Z,28.66
2017-06-08T10:22:54.173Z,28.61
2017-06-08T10:23:54.182Z,28.58
2017-06-08T10:24:54.186Z,28.49
2017-06-08T10:25:54.202Z,28.37
2017-06-08T10:26:54.201Z,28.39
2017-06-08T10:27:54.209Z,28.22
2017-06-08T10:28:54.216Z,28.24
2017-06-08T10:29:54.221Z,28.22
2017-06-08T10:30:54.233Z,28.12
2017-06-08T10:31:54.240Z,28.22
2017-06-08T10:32:53.939Z,28.3
2017-06-08T10:33:53.942Z,28.37
2017-06-08T10:34:54.250Z,28.41
2017-06-08T10:35:54.266Z,28.48
2017-06-08T10:36:54.265Z,28.52
2017-06-08T10:37:54.274Z,28.67
2017-06-08T10:38:54.281Z,28.64
2017-06-08T10:39:54.284Z,28.88
2017-06-08T10:40:54.299Z,28.88
2017-06-08T10:41:54.297Z,28.89
2017-06-08T10:42:54.303Z,29.08
2017-06-08T10:43:54.011Z,29.04
2017-06-08T10:44:54.315Z,29.16
2017-06-08T10:45:54.323Z,29.27
2017-06-08T10:46:54.333Z,29.27
2017-06-08T10:47:54.336Z,29.43
2017-06-08T10:48:54.345Z,29.46
2017-06-08T10:49:54.352Z,29.49
2017-06-08T10:50:54.359Z,29.45
2017-06-08T10:51:54.063Z,29.39
2017-06-08T10:52:54.068Z,29.3
2017-06-08T10:53:54.379Z,29.33
2017-06-08T10:54:54.387Z,29.27
2017-06-08T10:55:54.394Z,29.14
2017-06-08T10:56:54.399Z,29.08
2017-06-08T10:57:54.451Z,29.06
2017-06-08T10:58:54.412Z,28.92
2017-06-08T10:59:54.421Z,28.86
2017-06-08T11:00:54.428Z,28.89
2017-06-08T11:01:54.435Z,28.73
2017-06-08T11:02:54.440Z,28.66
2017-06-08T11:03:54.445Z,28.58
2017-06-08T11:04:54.454Z,28.44
2017-06-08T11:05:54.503Z,28.4
2017-06-08T11:06:54.165Z,28.39
2017-06-08T11:07:54.217Z,28.25
2017-06-08T11:08:54.178Z,28.12
2017-06-08T11:10:54.492Z,28
2017-06-08T11:11:54.502Z,27.79
2017-06-08T11:12:54.502Z,27.77
2017-06-08T11:13:54.510Z,27.74
2017-06-08T11:14:53.909Z,27.55
2017-06-08T11:15:54.524Z,27.39
2017-06-08T11:16:54.526Z,27.27
2017-06-08T11:17:54.529Z,27.24
2017-06-08T11:18:54.535Z,27.22
2017-06-08T11:19:54.542Z,27.1
2017-06-08T11:20:54.557Z,27.18
2017-06-08T11:21:54.552Z,27.12
2017-06-08T11:22:54.254Z,27.17
2017-06-08T11:23:54.262Z,27.19
2017-06-08T11:24:54.569Z,27.31
2017-06-08T11:25:54.584Z,27.34
2017-06-08T11:26:54.581Z,27.37
2017-06-08T11:27:54.587Z,27.4
2017-06-08T11:28:54.590Z,27.25
2017-06-08T11:29:54.597Z,27.36
2017-06-08T11:30:54.601Z,27.4
2017-06-08T11:31:54.609Z,27.44
2017-06-08T11:32:54.306Z,27.46
2017-06-08T11:33:54.617Z,27.29
2017-06-08T11:34:54.622Z,27.34
2017-06-08T11:35:54.625Z,27.29
2017-06-08T11:36:54.632Z,27.41
2017-06-08T11:37:54.638Z,27.47
2017-06-08T11:38:54.643Z,27.34
2017-06-08T11:39:54.646Z,27.37
2017-06-08T11:40:54.653Z,27.28
2017-06-08T11:41:54.658Z,27.1
2017-06-08T11:42:54.360Z,27.07
2017-06-08T11:43:54.670Z,27.06
2017-06-08T11:44:54.677Z,27.18
2017-06-08T11:45:54.684Z,27
2017-06-08T11:46:54.682Z,26.94
2017-06-08T11:47:54.690Z,26.97
2017-06-08T11:48:54.695Z,26.91
2017-06-08T11:49:54.400Z,26.84
2017-06-08T11:50:54.706Z,26.81
2017-06-08T11:51:54.710Z,26.82
2017-06-08T11:52:54.717Z,26.91
2017-06-08T11:53:54.415Z,26.94
2017-06-08T11:54:54.727Z,26.99
2017-06-08T11:55:54.730Z,27
2017-06-08T11:56:54.430Z,27.13
2017-06-08T11:57:54.740Z,27.17
2017-06-08T11:58:54.744Z,27.27
2017-06-08T11:59:54.748Z,27.31
2017-06-08T12:00:54.758Z,27.32
2017-06-08T12:01:54.763Z,27.44
2017-06-08T12:02:54.769Z,27.44
2017-06-08T12:03:54.770Z,27.55
2017-06-08T12:04:54.774Z,27.75
2017-06-08T12:05:54.477Z,27.82
2017-06-08T12:06:54.787Z,27.96
2017-06-08T12:07:54.788Z,27.94
2017-06-08T12:08:54.799Z,28.15
2017-06-08T12:09:54.802Z,28.24
2017-06-08T12:10:54.805Z,28.24
2017-06-08T12:11:54.813Z,28.37
2017-06-08T12:12:54.817Z,28.43
2017-06-08T12:13:54.824Z,28.51
2017-06-08T12:14:54.832Z,28.54
2017-06-08T12:15:54.837Z,28.56
2017-06-08T12:16:54.841Z,28.44
2017-06-08T12:17:54.846Z,28.44
2017-06-08T12:18:54.852Z,28.4
2017-06-08T12:19:54.859Z,28.4
2017-06-08T12:20:54.863Z,28.48
2017-06-08T12:21:54.869Z,28.61
2017-06-08T12:22:54.916Z,28.78
2017-06-08T12:23:54.882Z,28.89
2017-06-08T12:24:54.928Z,28.9
2017-06-08T12:25:54.899Z,28.93
2017-06-08T12:26:54.599Z,29.05
2017-06-08T12:27:54.906Z,29.11
2017-06-08T12:28:54.916Z,29.15
2017-06-08T12:29:54.922Z,29.18
2017-06-08T12:30:54.928Z,29.19
2017-06-08T12:31:54.932Z,29.23
2017-06-08T12:32:54.941Z,29.15
2017-06-08T12:33:54.945Z,29.09
2017-06-08T12:34:54.955Z,29.02
2017-06-08T12:35:54.960Z,28.92
2017-06-08T12:36:54.969Z,28.67
2017-06-08T12:37:54.976Z,28.49
2017-06-08T12:38:54.978Z,28.4
2017-06-08T12:39:54.986Z,28.48
2017-06-08T12:40:54.991Z,28.51
2017-06-08T12:41:54.998Z,28.39
2017-06-08T12:42:55.002Z,28.4
2017-06-08T12:43:55.012Z,28.29
2017-06-08T12:44:55.014Z,28.21
2017-06-08T12:45:54.727Z,28.12
2017-06-08T12:46:54.726Z,28.12
2017-06-08T12:47:55.036Z,28.11
2017-06-08T12:48:55.044Z,28.09
2017-06-08T12:49:55.046Z,28.11
2017-06-08T12:50:54.750Z,28.07
2017-06-08T12:51:55.058Z,28.06
2017-06-08T12:52:55.062Z,27.87
2017-06-08T12:53:54.766Z,27.92
2017-06-08T12:54:55.076Z,27.82
2017-06-08T12:55:55.079Z,27.77
2017-06-08T12:56:55.086Z,27.79
2017-06-08T12:57:55.091Z,27.92
2017-06-08T12:58:55.097Z,28